createdAt,value
2016-12-01T00:00:59.318Z,0
2016-12-01T00:01:59.954Z,0
2016-12-01T00:03:00.582Z,0
2016-12-01T00:04:01.212Z,0
2016-12-01T00:05:01.853Z,0
2016-12-01T00:06:02.477Z,0
2016-12-01T00:07:03.091Z,0
2016-12-01T00:08:03.787Z,0
2016-12-01T00:09:04.408Z,0
2016-12-01T00:10:05.029Z,0
2016-12-01T00:11:05.671Z,0
2016-12-01T00:12:06.280Z,0
2016-12-01T00:13:06.910Z,0
2016-12-01T00:14:07.584Z,0
2016-12-01T00:15:08.194Z,0
2016-12-01T00:16:08.799Z,0
2016-12-01T00:17:09.419Z,0
2016-12-01T00:18:10.063Z,0
2016-12-01T00:19:10.755Z,0
2016-12-01T00:20:11.367Z,0
2016-12-01T00:21:11.997Z,0
2016-12-01T00:22:12.722Z,0
2016-12-01T00:23:13.602Z,0
2016-12-01T00:24:14.250Z,0
2016-12-01T00:25:14.860Z,0
2016-12-01T00:26:15.486Z,0
2016-12-01T00:27:16.112Z,0
2016-12-01T00:28:16.728Z,0
2016-12-01T00:29:17.335Z,0
2016-12-01T00:30:17.955Z,0
2016-12-01T00:31:18.558Z,0
2016-12-01T00:32:19.181Z,0
2016-12-01T00:33:19.806Z,0
2016-12-01T00:34:20.459Z,0
2016-12-01T00:35:21.073Z,0
2016-12-01T00:36:21.695Z,0
2016-12-01T00:37:22.312Z,0
2016-12-01T00:38:22.921Z,0
2016-12-01T00:39:23.549Z,0
2016-12-01T00:40:24.173Z,0
2016-12-01T00:41:24.811Z,0
2016-12-01T00:42:25.435Z,0
2016-12-01T00:43:26.050Z,0
2016-12-01T00:44:26.675Z,0
2016-12-01T00:45:27.308Z,0
2016-12-01T00:46:27.939Z,0
2016-12-01T00:47:28.566Z,0
2016-12-01T00:48:29.179Z,0
2016-12-01T00:49:29.839Z,0
2016-12-01T00:50:30.481Z,0
2016-12-01T00:51:31.136Z,0
2016-12-01T00:52:31.791Z,0
2016-12-01T00:53:32.490Z,0
2016-12-01T00:54:33.116Z,0
2016-12-01T00:55:33.743Z,0
2016-12-01T00:56:34.375Z,0
2016-12-01T00:57:34.993Z,0
2016-12-01T00:58:35.596Z,0
2016-12-01T00:59:36.234Z,0
2016-12-01T01:00:36.864Z,0
2016-12-01T01:01:37.488Z,0
2016-12-01T01:02:38.107Z,0
2016-12-01T01:03:38.729Z,0
2016-12-01T01:04:39.345Z,0
2016-12-01T01:05:39.996Z,0
2016-12-01T01:06:40.630Z,0
2016-12-01T01:07:41.240Z,0
2016-12-01T01:08:41.848Z,0
2016-12-01T01:09:42.478Z,0
2016-12-01T01:10:43.145Z,0
2016-12-01T01:11:43.784Z,0
2016-12-01T01:12:44.406Z,0
2016-12-01T01:13:45.012Z,0
2016-12-01T01:14:45.649Z,0
2016-12-01T01:15:46.283Z,0
2016-12-01T01:16:46.917Z,0
2016-12-01T01:17:47.549Z,0
2016-12-01T01:18:48.224Z,0
2016-12-01T01:19:48.832Z,0
2016-12-01T01:20:49.454Z,0
2016-12-01T01:21:50.076Z,0
2016-12-01T01:22:50.721Z,0
2016-12-01T01:23:51.327Z,0
2016-12-01T01:24:51.949Z,0
2016-12-01T01:25:52.570Z,0
2016-12-01T01:26:53.200Z,0
2016-12-01T01:27:53.819Z,0
2016-12-01T01:28:54.435Z,0
2016-12-01T01:29:55.067Z,0
2016-12-01T01:30:55.694Z,0
2016-12-01T01:31:56.335Z,0
2016-12-01T01:32:56.969Z,0
2016-12-01T01:33:57.637Z,0
2016-12-01T01:34:58.266Z,0
2016-12-01T01:35:58.901Z,0
2016-12-01T01:36:59.542Z,0
2016-12-01T01:38:00.168Z,0
2016-12-01T01:39:00.783Z,0
2016-12-01T01:40:01.402Z,0
2016-12-01T01:41:02.158Z,0
2016-12-01T01:42:02.787Z,0
2016-12-01T01:43:03.418Z,0
2016-12-01T01:44:04.090Z,0
2016-12-01T01:45:04.728Z,0
2016-12-01T01:46:05.339Z,0
2016-12-01T01:47:05.971Z,0
2016-12-01T01:48:06.622Z,0
2016-12-01T01:49:07.264Z,0
2016-12-01T01:50:07.907Z,0
2016-12-01T01:51:08.538Z,0
2016-12-01T01:52:09.180Z,0
2016-12-01T01:53:09.807Z,0
2016-12-01T01:54:10.429Z,0
2016-12-01T01:55:11.054Z,0
2016-12-01T01:56:11.681Z,0
2016-12-01T01:57:12.292Z,0
2016-12-01T01:58:12.904Z,0
2016-12-01T01:59:13.533Z,0
2016-12-01T02:00:14.139Z,0
2016-12-01T02:01:14.753Z,0
2016-12-01T02:02:15.383Z,0
2016-12-01T02:03:16.003Z,0
2016-12-01T02:04:16.619Z,0
2016-12-01T02:05:17.256Z,0
2016-12-01T02:06:17.887Z,0
2016-12-01T02:07:18.523Z,0
2016-12-01T02:08:19.155Z,0
2016-12-01T02:09:19.825Z,0
2016-12-01T02:10:20.459Z,0
2016-12-01T02:11:21.092Z,0
2016-12-01T02:12:21.692Z,0
2016-12-01T02:13:22.321Z,0
2016-12-01T02:14:22.946Z,0
2016-12-01T02:15:23.561Z,0
2016-12-01T02:16:24.179Z,0
2016-12-01T02:17:24.807Z,0
2016-12-01T02:18:25.434Z,0
2016-12-01T02:19:26.046Z,0
2016-12-01T02:20:26.658Z,0
2016-12-01T02:21:27.278Z,0
2016-12-01T02:22:27.890Z,0
2016-12-01T02:23:28.511Z,0
2016-12-01T02:24:29.131Z,0
2016-12-01T02:25:29.753Z,0
2016-12-01T02:26:30.378Z,0
2016-12-01T02:27:30.998Z,0
2016-12-01T02:28:31.619Z,0
2016-12-01T02:29:32.237Z,0
2016-12-01T02:30:32.863Z,0
2016-12-01T02:31:33.498Z,0
2016-12-01T02:32:34.142Z,0
2016-12-01T02:33:34.764Z,0
2016-12-01T02:34:35.387Z,0
2016-12-01T02:35:36.004Z,0
2016-12-01T02:36:36.619Z,0
2016-12-01T02:37:37.249Z,0
2016-12-01T02:38:37.872Z,0
2016-12-01T02:39:38.504Z,0
2016-12-01T02:40:39.141Z,0
2016-12-01T02:41:39.771Z,0
2016-12-01T02:42:40.384Z,0
2016-12-01T02:43:41.003Z,0
2016-12-01T02:44:41.622Z,0
2016-12-01T02:45:42.241Z,0
2016-12-01T02:46:42.850Z,0
2016-12-01T02:47:43.483Z,0
2016-12-01T02:48:44.155Z,0
2016-12-01T02:49:44.765Z,0
2016-12-01T02:50:45.388Z,0
2016-12-01T02:51:46.035Z,0
2016-12-01T02:52:46.637Z,0
2016-12-01T02:53:47.275Z,0
2016-12-01T02:54:47.897Z,0
2016-12-01T02:55:48.513Z,0
2016-12-01T02:56:49.133Z,0
2016-12-01T02:57:49.751Z,0
2016-12-01T02:58:50.363Z,0
2016-12-01T02:59:50.986Z,0
2016-12-01T03:00:51.612Z,0
2016-12-01T03:01:52.246Z,0
2016-12-01T03:02:52.879Z,0
2016-12-01T03:03:53.514Z,0
2016-12-01T03:04:54.134Z,0
2016-12-01T03:05:54.756Z,0
2016-12-01T03:06:55.377Z,0
2016-12-01T03:07:56.004Z,0
2016-12-01T03:08:56.625Z,0
2016-12-01T03:09:57.247Z,0
2016-12-01T03:10:57.886Z,0
2016-12-01T03:11:58.516Z,0
2016-12-01T03:12:59.146Z,0
2016-12-01T03:13:59.774Z,0
2016-12-01T03:15:00.397Z,0
2016-12-01T03:16:01.018Z,0
2016-12-01T03:17:01.668Z,0
2016-12-01T03:18:02.305Z,0
2016-12-01T03:19:02.933Z,0
2016-12-01T03:20:03.620Z,0
2016-12-01T03:21:04.238Z,0
2016-12-01T03:22:04.846Z,0
2016-12-01T03:23:05.476Z,0
2016-12-01T03:24:06.088Z,0
2016-12-01T03:25:06.714Z,0
2016-12-01T03:26:07.334Z,0
2016-12-01T03:27:07.957Z,0
2016-12-01T03:28:08.572Z,0
2016-12-01T03:29:09.193Z,0
2016-12-01T03:30:09.806Z,0
2016-12-01T03:31:10.439Z,0
2016-12-01T03:32:11.055Z,0
2016-12-01T03:33:11.674Z,0
2016-12-01T03:34:12.298Z,0
2016-12-01T03:35:12.927Z,0
2016-12-01T03:36:13.544Z,0
2016-12-01T03:37:14.185Z,0
2016-12-01T03:38:14.847Z,0
2016-12-01T03:39:15.471Z,0
2016-12-01T03:40:16.089Z,0
2016-12-01T03:41:16.714Z,0
2016-12-01T03:42:17.364Z,0
2016-12-01T03:43:17.991Z,0
2016-12-01T03:44:18.632Z,0
2016-12-01T03:45:19.246Z,0
2016-12-01T03:46:19.967Z,0
2016-12-01T03:47:20.624Z,0
2016-12-01T03:48:21.253Z,0
2016-12-01T03:49:21.884Z,0
2016-12-01T03:50:22.507Z,0
2016-12-01T03:51:23.173Z,0
2016-12-01T03:52:23.801Z,0
2016-12-01T03:53:24.458Z,0
2016-12-01T03:54:25.096Z,0
2016-12-01T03:55:25.701Z,0
2016-12-01T03:56:26.339Z,0
2016-12-01T03:57:26.954Z,0
2016-12-01T03:58:27.570Z,0
2016-12-01T03:59:28.192Z,0
2016-12-01T04:00:28.816Z,0
2016-12-01T04:01:29.424Z,0
2016-12-01T04:02:30.050Z,0
2016-12-01T04:03:30.671Z,0
2016-12-01T04:04:31.299Z,0
2016-12-01T04:05:31.892Z,0
2016-12-01T04:06:32.514Z,0
2016-12-01T04:07:33.125Z,0
2016-12-01T04:08:33.727Z,0
2016-12-01T04:09:34.404Z,0
2016-12-01T04:10:35.057Z,0
2016-12-01T04:11:35.685Z,0
2016-12-01T04:12:36.365Z,0
2016-12-01T04:13:37.010Z,0
2016-12-01T04:14:37.655Z,0
2016-12-01T04:15:38.274Z,0
2016-12-01T04:16:38.896Z,0
2016-12-01T04:17:39.512Z,0
2016-12-01T04:18:40.136Z,0
2016-12-01T04:19:40.758Z,0
2016-12-01T04:20:41.379Z,0
2016-12-01T04:21:42.002Z,0
2016-12-01T04:22:42.622Z,0
2016-12-01T04:23:43.238Z,0
2016-12-01T04:24:43.871Z,0
2016-12-01T04:25:44.497Z,0
2016-12-01T04:26:47.312Z,0
2016-12-01T04:27:47.932Z,0
2016-12-01T04:28:48.591Z,0
2016-12-01T04:29:49.250Z,0
2016-12-01T04:30:49.865Z,0
2016-12-01T04:31:50.485Z,0
2016-12-01T04:32:51.117Z,0
2016-12-01T04:33:51.756Z,0
2016-12-01T04:34:52.421Z,0
2016-12-01T04:35:53.048Z,0
2016-12-01T04:36:53.687Z,0
2016-12-01T04:37:54.303Z,0
2016-12-01T04:38:54.928Z,0
2016-12-01T04:39:55.563Z,0
2016-12-01T04:40:56.178Z,0
2016-12-01T04:41:56.792Z,0
2016-12-01T04:42:57.433Z,0
2016-12-01T04:43:58.061Z,0
2016-12-01T04:46:36.553Z,0
2016-12-01T04:47:37.162Z,0
2016-12-01T04:48:37.777Z,0
2016-12-01T04:49:38.389Z,0
2016-12-01T04:50:39.028Z,0
2016-12-01T04:51:39.635Z,0
2016-12-01T04:52:40.254Z,0
2016-12-01T04:53:40.887Z,0
2016-12-01T04:54:41.492Z,0
2016-12-01T04:55:42.121Z,0
2016-12-01T04:56:42.734Z,0
2016-12-01T04:57:43.367Z,0
2016-12-01T04:58:43.978Z,0
2016-12-01T04:59:44.574Z,0
2016-12-01T05:00:45.184Z,0
2016-12-01T05:01:45.799Z,0
2016-12-01T05:02:46.422Z,0
2016-12-01T05:03:47.045Z,0
2016-12-01T05:04:47.664Z,0
2016-12-01T05:05:48.285Z,0
2016-12-01T05:06:48.905Z,0
2016-12-01T05:07:49.532Z,0
2016-12-01T05:08:50.145Z,0
2016-12-01T05:09:50.754Z,0
2016-12-01T05:10:51.360Z,0
2016-12-01T05:11:51.966Z,0
2016-12-01T05:12:52.587Z,0
2016-12-01T05:13:53.198Z,0
2016-12-01T05:14:53.813Z,0
2016-12-01T05:15:54.427Z,0
2016-12-01T05:16:55.046Z,0
2016-12-01T05:17:55.637Z,0
2016-12-01T05:18:56.244Z,0
2016-12-01T05:19:56.853Z,0
2016-12-01T05:20:57.466Z,0
2016-12-01T05:21:58.093Z,0
2016-12-01T05:22:58.685Z,0
2016-12-01T05:23:59.307Z,0
2016-12-01T05:24:59.937Z,0
2016-12-01T05:26:00.556Z,0
2016-12-01T05:27:01.167Z,0
2016-12-01T05:28:01.795Z,0
2016-12-01T05:29:02.415Z,0
2016-12-01T05:30:03.030Z,0
2016-12-01T05:31:03.659Z,0
2016-12-01T05:32:04.269Z,0
2016-12-01T05:33:04.917Z,0
2016-12-01T05:34:05.524Z,0
2016-12-01T05:35:06.135Z,0
2016-12-01T05:36:06.754Z,0
2016-12-01T05:37:07.368Z,0
2016-12-01T05:38:07.990Z,0
2016-12-01T05:39:08.613Z,0
2016-12-01T05:40:09.253Z,0
2016-12-01T05:41:09.868Z,0
2016-12-01T05:42:10.492Z,0
2016-12-01T05:43:11.103Z,0
2016-12-01T05:44:11.725Z,0
2016-12-01T05:45:12.347Z,0
2016-12-01T05:46:12.955Z,0
2016-12-01T05:47:13.573Z,0
2016-12-01T05:48:14.171Z,0
2016-12-01T05:49:14.771Z,0
2016-12-01T05:50:15.424Z,0
2016-12-01T05:51:16.028Z,0
2016-12-01T05:52:16.634Z,0
2016-12-01T05:53:17.253Z,0
2016-12-01T05:54:17.846Z,0
2016-12-01T05:55:18.463Z,0
2016-12-01T05:56:19.067Z,0
2016-12-01T05:57:19.689Z,0
2016-12-01T05:58:20.303Z,0
2016-12-01T05:59:20.912Z,0
2016-12-01T06:00:21.518Z,0
2016-12-01T06:01:22.158Z,0
2016-12-01T06:02:22.778Z,0
2016-12-01T06:03:23.384Z,0
2016-12-01T06:04:24.016Z,0
2016-12-01T06:05:24.645Z,0
2016-12-01T06:06:25.248Z,0
2016-12-01T06:07:25.870Z,0
2016-12-01T06:08:26.484Z,0
2016-12-01T06:09:27.104Z,0
2016-12-01T06:10:27.722Z,0
2016-12-01T06:11:28.356Z,0
2016-12-01T06:12:28.978Z,0
2016-12-01T06:13:29.585Z,0
2016-12-01T06:14:30.206Z,0
2016-12-01T06:15:30.818Z,0
2016-12-01T06:16:31.447Z,0
2016-12-01T06:17:32.069Z,0
2016-12-01T06:18:32.705Z,0
2016-12-01T06:19:33.375Z,0
2016-12-01T06:20:34.016Z,0
2016-12-01T06:21:34.649Z,0
2016-12-01T06:22:35.294Z,0
2016-12-01T06:23:35.922Z,0
2016-12-01T06:24:36.578Z,0
2016-12-01T06:25:37.240Z,0
2016-12-01T06:26:37.870Z,0
2016-12-01T06:27:38.490Z,0
2016-12-01T06:28:39.121Z,0
2016-12-01T06:29:39.724Z,0
2016-12-01T06:30:40.353Z,0
2016-12-01T06:31:40.985Z,0
2016-12-01T06:32:41.598Z,0
2016-12-01T06:33:42.203Z,0
2016-12-01T06:34:42.805Z,0
2016-12-01T06:35:43.414Z,0
2016-12-01T06:36:44.031Z,0
2016-12-01T06:37:44.697Z,0
2016-12-01T06:38:45.327Z,0
2016-12-01T06:39:45.945Z,0
2016-12-01T06:40:46.565Z,0
2016-12-01T06:41:47.178Z,0
2016-12-01T06:42:47.800Z,0
2016-12-01T06:43:48.430Z,0
2016-12-01T06:44:49.045Z,0
2016-12-01T06:45:49.673Z,0
2016-12-01T06:46:50.305Z,0
2016-12-01T06:47:50.932Z,0
2016-12-01T06:48:51.596Z,0
2016-12-01T06:49:52.219Z,0
2016-12-01T06:50:52.827Z,0
2016-12-01T06:51:53.450Z,0
2016-12-01T06:52:54.076Z,0
2016-12-01T06:53:54.678Z,0
2016-12-01T06:54:55.295Z,0
2016-12-01T06:55:55.912Z,0
2016-12-01T06:56:56.532Z,0
2016-12-01T06:57:57.149Z,0
2016-12-01T06:58:57.783Z,0
2016-12-01T06:59:58.417Z,0
2016-12-01T07:00:59.047Z,0
2016-12-01T07:01:59.700Z,0
2016-12-01T07:03:00.327Z,0
2016-12-01T07:04:00.940Z,0
2016-12-01T07:05:01.566Z,0
2016-12-01T07:06:02.192Z,0
2016-12-01T07:07:02.814Z,0
2016-12-01T07:08:03.424Z,0
2016-12-01T07:09:04.075Z,0
2016-12-01T07:10:04.683Z,0
2016-12-01T07:11:05.291Z,0
2016-12-01T07:12:05.929Z,0
2016-12-01T07:13:06.557Z,0
2016-12-01T07:14:07.175Z,0
2016-12-01T07:15:07.781Z,0
2016-12-01T07:16:08.396Z,0
2016-12-01T07:17:09.043Z,0
2016-12-01T07:18:09.657Z,0
2016-12-01T07:19:10.260Z,0
2016-12-01T07:20:10.883Z,0
2016-12-01T07:21:11.499Z,5
2016-12-01T07:22:12.126Z,5
2016-12-01T07:23:12.752Z,5
2016-12-01T07:24:13.371Z,5
2016-12-01T07:25:13.976Z,5
2016-12-01T07:26:14.588Z,5
2016-12-01T07:27:15.198Z,5
2016-12-01T07:28:15.832Z,5
2016-12-01T07:29:16.431Z,5
2016-12-01T07:30:17.049Z,5
2016-12-01T07:31:17.683Z,5
2016-12-01T07:32:18.353Z,5
2016-12-01T07:33:18.980Z,10
2016-12-01T07:34:19.600Z,10
2016-12-01T07:35:20.227Z,10
2016-12-01T07:36:20.842Z,10
2016-12-01T07:37:21.456Z,10
2016-12-01T07:38:22.085Z,15
2016-12-01T07:39:22.719Z,15
2016-12-01T07:40:23.322Z,15
2016-12-01T07:41:23.933Z,20
2016-12-01T07:42:24.558Z,25
2016-12-01T07:43:25.185Z,25
2016-12-01T07:44:25.815Z,20
2016-12-01T07:45:26.442Z,15
2016-12-01T07:46:27.054Z,15
2016-12-01T07:47:27.709Z,20
2016-12-01T07:48:28.354Z,30
2016-12-01T07:49:28.966Z,30
2016-12-01T07:50:29.586Z,30
2016-12-01T07:51:30.229Z,20
2016-12-01T07:52:30.843Z,20
2016-12-01T07:53:31.481Z,25
2016-12-01T07:54:32.105Z,25
2016-12-01T07:55:32.739Z,30
2016-12-01T07:56:33.371Z,25
2016-12-01T07:57:33.986Z,15
2016-12-01T07:58:34.650Z,20
2016-12-01T07:59:35.259Z,20
2016-12-01T08:00:35.878Z,20
2016-12-01T08:01:36.515Z,20
2016-12-01T08:02:37.125Z,25
2016-12-01T08:03:37.754Z,30
2016-12-01T08:04:38.371Z,30
2016-12-01T08:05:39.001Z,25
2016-12-01T08:06:39.639Z,25
2016-12-01T08:07:40.295Z,30
2016-12-01T08:08:40.962Z,30
2016-12-01T08:09:41.577Z,30
2016-12-01T08:10:42.216Z,35
2016-12-01T08:11:42.831Z,40
2016-12-01T08:12:43.438Z,45
2016-12-01T08:13:44.059Z,55
2016-12-01T08:14:44.708Z,60
2016-12-01T08:15:45.339Z,65
2016-12-01T08:16:45.954Z,65
2016-12-01T08:17:46.567Z,70
2016-12-01T08:18:47.185Z,80
2016-12-01T08:19:47.828Z,85
2016-12-01T08:20:48.457Z,70
2016-12-01T08:21:49.134Z,50
2016-12-01T08:22:49.763Z,60
2016-12-01T08:23:50.389Z,55
2016-12-01T08:24:51.020Z,65
2016-12-01T08:25:51.650Z,50
2016-12-01T08:26:52.282Z,45
2016-12-01T08:27:52.924Z,35
2016-12-01T08:28:53.567Z,35
2016-12-01T08:29:54.217Z,35
2016-12-01T08:30:54.859Z,25
2016-12-01T08:31:55.491Z,30
2016-12-01T08:32:56.128Z,30
2016-12-01T08:33:56.747Z,50
2016-12-01T08:34:57.375Z,55
2016-12-01T08:35:58.010Z,45
2016-12-01T08:36:58.623Z,40
2016-12-01T08:37:59.270Z,40
2016-12-01T08:38:59.899Z,35
2016-12-01T08:40:00.519Z,45
2016-12-01T08:41:01.142Z,45
2016-12-01T08:42:01.767Z,50
2016-12-01T08:43:02.391Z,60
2016-12-01T08:44:03.004Z,60
2016-12-01T08:45:03.623Z,55
2016-12-01T08:46:04.247Z,60
2016-12-01T08:47:04.861Z,60
2016-12-01T08:48:05.496Z,55
2016-12-01T08:49:06.109Z,55
2016-12-01T08:50:06.761Z,70
2016-12-01T08:51:07.406Z,65
2016-12-01T08:52:08.023Z,60
2016-12-01T08:53:08.629Z,45
2016-12-01T08:54:09.250Z,55
2016-12-01T08:55:09.877Z,75
2016-12-01T08:56:10.494Z,55
2016-12-01T08:57:11.116Z,85
2016-12-01T08:58:11.731Z,70
2016-12-01T08:59:12.352Z,85
2016-12-01T09:00:12.977Z,90
2016-12-01T09:01:13.629Z,65
2016-12-01T09:02:14.268Z,65
2016-12-01T09:03:14.881Z,60
2016-12-01T09:04:15.505Z,70
2016-12-01T09:05:16.119Z,65
2016-12-01T09:06:16.745Z,50
2016-12-01T09:07:17.364Z,50
2016-12-01T09:08:17.985Z,45
2016-12-01T09:09:18.627Z,45
2016-12-01T09:10:19.222Z,40
2016-12-01T09:11:19.833Z,30
2016-12-01T09:12:20.460Z,35
2016-12-01T09:13:21.063Z,55
2016-12-01T09:14:21.666Z,75
2016-12-01T09:15:22.302Z,75
2016-12-01T09:16:22.945Z,90
2016-12-01T09:17:23.570Z,105
2016-12-01T09:18:24.196Z,115
2016-12-01T09:19:24.838Z,120
2016-12-01T09:20:25.475Z,85
2016-12-01T09:21:26.085Z,110
2016-12-01T09:22:26.709Z,105
2016-12-01T09:23:27.328Z,105
2016-12-01T09:24:27.949Z,110
2016-12-01T09:25:28.611Z,105
2016-12-01T09:26:29.230Z,110
2016-12-01T09:27:29.863Z,120
2016-12-01T09:28:30.504Z,115
2016-12-01T09:29:31.139Z,115
2016-12-01T09:30:31.777Z,130
2016-12-01T09:31:32.416Z,140
2016-12-01T09:32:33.051Z,130
2016-12-01T09:33:33.702Z,105
2016-12-01T09:34:34.334Z,90
2016-12-01T09:35:34.954Z,90
2016-12-01T09:36:35.596Z,100
2016-12-01T09:37:36.226Z,85
2016-12-01T09:38:36.867Z,95
2016-12-01T09:39:37.512Z,130
2016-12-01T09:40:38.152Z,145
2016-12-01T09:41:38.769Z,145
2016-12-01T09:42:39.412Z,125
2016-12-01T09:43:40.050Z,130
2016-12-01T09:44:40.679Z,145
2016-12-01T09:45:41.307Z,135
2016-12-01T09:46:41.962Z,100
2016-12-01T09:47:42.588Z,90
2016-12-01T09:48:43.243Z,85
2016-12-01T09:49:43.882Z,75
2016-12-01T09:50:44.543Z,90
2016-12-01T09:51:45.176Z,90
2016-12-01T09:52:45.816Z,110
2016-12-01T09:53:46.724Z,120
2016-12-01T09:54:47.360Z,135
2016-12-01T09:55:47.999Z,155
2016-12-01T09:56:48.661Z,160
2016-12-01T09:57:49.300Z,170
2016-12-01T09:58:49.942Z,175
2016-12-01T09:59:50.582Z,175
2016-12-01T10:00:51.218Z,160
2016-12-01T10:01:51.861Z,165
2016-12-01T10:02:52.532Z,160
2016-12-01T10:03:53.289Z,150
2016-12-01T10:04:53.868Z,140
2016-12-01T10:05:54.580Z,135
2016-12-01T10:06:55.206Z,160
2016-12-01T10:07:55.844Z,185
2016-12-01T10:08:56.481Z,175
2016-12-01T10:09:57.130Z,155
2016-12-01T10:10:57.773Z,155
2016-12-01T10:11:58.402Z,165
2016-12-01T10:12:59.031Z,180
2016-12-01T10:13:59.652Z,200
2016-12-01T10:15:00.347Z,205
2016-12-01T10:16:00.997Z,190
2016-12-01T10:17:01.635Z,165
2016-12-01T10:18:02.280Z,165
2016-12-01T10:19:02.903Z,170
2016-12-01T10:20:03.638Z,170
2016-12-01T10:21:04.276Z,175
2016-12-01T10:22:04.926Z,175
2016-12-01T10:23:05.556Z,185
2016-12-01T10:24:06.243Z,195
2016-12-01T10:25:06.906Z,175
2016-12-01T10:26:07.534Z,165
2016-12-01T10:27:08.193Z,150
2016-12-01T10:28:08.862Z,125
2016-12-01T10:29:09.504Z,130
2016-12-01T10:30:10.156Z,120
2016-12-01T10:31:10.836Z,90
2016-12-01T10:32:11.472Z,90
2016-12-01T10:33:12.136Z,85
2016-12-01T10:34:12.763Z,95
2016-12-01T10:35:13.410Z,110
2016-12-01T10:36:14.049Z,100
2016-12-01T10:37:14.708Z,150
2016-12-01T10:38:15.350Z,175
2016-12-01T10:39:16.011Z,150
2016-12-01T10:40:16.640Z,155
2016-12-01T10:41:17.303Z,180
2016-12-01T10:42:17.943Z,165
2016-12-01T10:43:18.583Z,175
2016-12-01T10:44:19.230Z,190
2016-12-01T10:45:19.882Z,195
2016-12-01T10:46:20.609Z,215
2016-12-01T10:47:21.355Z,225
2016-12-01T10:48:21.992Z,225
2016-12-01T10:49:22.634Z,220
2016-12-01T10:50:23.277Z,220
2016-12-01T10:51:23.895Z,230
2016-12-01T10:52:24.557Z,225
2016-12-01T10:53:25.229Z,215
2016-12-01T10:54:25.872Z,205
2016-12-01T10:55:26.533Z,190
2016-12-01T10:56:27.197Z,185
2016-12-01T10:57:27.828Z,175
2016-12-01T10:58:28.477Z,170
2016-12-01T10:59:29.140Z,165
2016-12-01T11:00:29.781Z,160
2016-12-01T11:01:30.422Z,160
2016-12-01T11:02:31.110Z,155
2016-12-01T11:03:31.757Z,145
2016-12-01T11:04:32.386Z,140
2016-12-01T11:05:33.054Z,140
2016-12-01T11:06:33.691Z,130
2016-12-01T11:07:34.317Z,115
2016-12-01T11:08:34.985Z,100
2016-12-01T11:09:35.691Z,110
2016-12-01T11:10:36.357Z,105
2016-12-01T11:11:37.044Z,95
2016-12-01T11:12:37.710Z,90
2016-12-01T11:13:38.355Z,75
2016-12-01T11:14:39.073Z,70
2016-12-01T11:15:39.757Z,75
2016-12-01T11:16:40.387Z,85
2016-12-01T11:17:41.031Z,100
2016-12-01T11:18:41.716Z,100
2016-12-01T11:19:42.356Z,105
2016-12-01T11:20:43.042Z,125
2016-12-01T11:21:43.709Z,135
2016-12-01T11:22:44.368Z,135
2016-12-01T11:23:45.060Z,130
2016-12-01T11:24:45.884Z,135
2016-12-01T11:25:46.598Z,115
2016-12-01T11:26:47.193Z,130
2016-12-01T11:27:47.845Z,105
2016-12-01T11:28:48.553Z,95
2016-12-01T11:29:49.217Z,100
2016-12-01T11:30:49.878Z,105
2016-12-01T11:31:50.550Z,95
2016-12-01T11:32:51.173Z,100
2016-12-01T11:33:51.821Z,95
2016-12-01T11:34:52.473Z,80
2016-12-01T11:35:53.123Z,100
2016-12-01T11:36:53.826Z,110
2016-12-01T11:37:54.477Z,110
2016-12-01T11:38:55.205Z,110
2016-12-01T11:39:55.873Z,90
2016-12-01T11:40:56.575Z,80
2016-12-01T11:41:57.218Z,70
2016-12-01T11:42:57.883Z,85
2016-12-01T11:43:58.520Z,115
2016-12-01T11:44:59.131Z,125
2016-12-01T11:45:59.766Z,135
2016-12-01T11:47:00.436Z,130
2016-12-01T11:48:01.072Z,120
2016-12-01T11:49:01.729Z,115
2016-12-01T11:50:02.412Z,130
2016-12-01T11:51:03.038Z,110
2016-12-01T11:52:03.675Z,105
2016-12-01T11:53:04.334Z,95
2016-12-01T11:54:04.984Z,125
2016-12-01T11:55:05.635Z,140
2016-12-01T11:56:06.268Z,120
2016-12-01T11:57:06.909Z,120
2016-12-01T11:58:07.569Z,130
2016-12-01T11:59:08.229Z,155
2016-12-01T12:00:08.873Z,140
2016-12-01T12:01:09.494Z,110
2016-12-01T12:02:10.103Z,100
2016-12-01T12:03:10.778Z,110
2016-12-01T12:04:11.489Z,110
2016-12-01T12:05:12.127Z,130
2016-12-01T12:06:12.772Z,120
2016-12-01T12:07:13.405Z,110
2016-12-01T12:08:14.031Z,115
2016-12-01T12:09:14.676Z,140
2016-12-01T12:10:15.312Z,155
2016-12-01T12:11:15.950Z,145
2016-12-01T12:12:16.619Z,145
2016-12-01T12:13:17.292Z,150
2016-12-01T12:14:17.932Z,160
2016-12-01T12:15:18.572Z,150
2016-12-01T12:16:19.247Z,175
2016-12-01T12:17:19.983Z,170
2016-12-01T12:18:20.613Z,150
2016-12-01T12:19:21.305Z,155
2016-12-01T12:20:22.002Z,150
2016-12-01T12:21:22.650Z,140
2016-12-01T12:22:23.288Z,110
2016-12-01T12:23:23.940Z,110
2016-12-01T12:24:24.567Z,110
2016-12-01T12:25:25.264Z,105
2016-12-01T12:26:25.945Z,75
2016-12-01T12:27:26.567Z,80
2016-12-01T12:28:27.247Z,65
2016-12-01T12:29:27.924Z,65
2016-12-01T12:30:28.676Z,100
2016-12-01T12:31:29.311Z,100
2016-12-01T12:32:29.963Z,75
2016-12-01T12:33:30.648Z,100
2016-12-01T12:34:31.301Z,95
2016-12-01T12:35:32.199Z,105
2016-12-01T12:36:32.784Z,120
2016-12-01T12:37:33.429Z,130
2016-12-01T12:38:34.105Z,110
2016-12-01T12:39:34.803Z,105
2016-12-01T12:40:35.443Z,115
2016-12-01T12:41:36.132Z,90
2016-12-01T12:42:36.866Z,115
2016-12-01T12:43:37.649Z,150
2016-12-01T12:44:38.308Z,150
2016-12-01T12:45:38.968Z,125
2016-12-01T12:46:39.647Z,130
2016-12-01T12:47:40.265Z,85
2016-12-01T12:48:40.898Z,100
2016-12-01T12:49:41.621Z,85
2016-12-01T12:50:42.227Z,90
2016-12-01T12:51:42.863Z,70
2016-12-01T12:52:43.510Z,45
2016-12-01T12:53:44.187Z,35
2016-12-01T12:54:44.838Z,25
2016-12-01T12:55:45.473Z,40
2016-12-01T12:56:46.161Z,40
2016-12-01T12:57:46.886Z,40
2016-12-01T12:58:47.564Z,70
2016-12-01T12:59:48.242Z,75
2016-12-01T13:00:48.886Z,70
2016-12-01T13:01:49.520Z,70
2016-12-01T13:02:50.159Z,80
2016-12-01T13:03:50.817Z,75
2016-12-01T13:04:51.447Z,90
2016-12-01T13:05:52.061Z,100
2016-12-01T13:06:52.698Z,115
2016-12-01T13:07:53.336Z,110
2016-12-01T13:08:54.018Z,85
2016-12-01T13:09:54.664Z,70
2016-12-01T13:10:55.316Z,70
2016-12-01T13:11:55.944Z,70
2016-12-01T13:12:56.601Z,70
2016-12-01T13:13:57.230Z,75
2016-12-01T13:14:57.870Z,85
2016-12-01T13:15:58.493Z,95
2016-12-01T13:16:59.120Z,95
2016-12-01T13:17:59.764Z,100
2016-12-01T13:19:00.429Z,110
2016-12-01T13:20:01.064Z,110
2016-12-01T13:21:01.714Z,105
2016-12-01T13:22:02.400Z,105
2016-12-01T13:23:03.071Z,105
2016-12-01T13:24:03.744Z,110
2016-12-01T13:25:04.419Z,110
2016-12-01T13:26:05.103Z,115
2016-12-01T13:27:05.751Z,110
2016-12-01T13:28:06.371Z,105
2016-12-01T13:29:07.020Z,105
2016-12-01T13:30:07.642Z,100
2016-12-01T13:31:08.270Z,95
2016-12-01T13:32:08.943Z,95
2016-12-01T13:33:09.624Z,100
2016-12-01T13:34:10.294Z,105
2016-12-01T13:35:11.066Z,110
2016-12-01T13:36:11.719Z,110
2016-12-01T13:37:12.402Z,115
2016-12-01T13:38:13.064Z,115
2016-12-01T13:39:13.746Z,120
2016-12-01T13:40:14.392Z,115
2016-12-01T13:41:15.044Z,120
2016-12-01T13:42:15.686Z,115
2016-12-01T13:43:16.334Z,105
2016-12-01T13:44:16.986Z,85
2016-12-01T13:45:17.636Z,75
2016-12-01T13:46:18.270Z,75
2016-12-01T13:47:18.932Z,80
2016-12-01T13:48:19.614Z,80
2016-12-01T13:49:20.268Z,70
2016-12-01T13:50:20.928Z,55
2016-12-01T13:51:21.602Z,60
2016-12-01T13:52:22.263Z,55
2016-12-01T13:53:22.933Z,60
2016-12-01T13:54:23.662Z,45
2016-12-01T13:55:24.300Z,45
2016-12-01T13:56:24.938Z,35
2016-12-01T13:57:25.582Z,35
2016-12-01T13:58:26.215Z,40
2016-12-01T13:59:26.884Z,35
2016-12-01T14:00:27.581Z,35
2016-12-01T14:01:28.262Z,30
2016-12-01T14:02:29.050Z,25
2016-12-01T14:03:29.693Z,30
2016-12-01T14:04:30.345Z,30
2016-12-01T14:05:30.988Z,25
2016-12-01T14:06:31.644Z,25
2016-12-01T14:07:32.295Z,25
2016-12-01T14:08:32.971Z,30
2016-12-01T14:09:33.613Z,20
2016-12-01T14:10:34.277Z,25
2016-12-01T14:11:34.914Z,15
2016-12-01T14:12:35.560Z,10
2016-12-01T14:13:36.207Z,10
2016-12-01T14:14:36.843Z,15
2016-12-01T14:15:37.475Z,20
2016-12-01T14:16:38.178Z,15
2016-12-01T14:17:38.854Z,20
2016-12-01T14:18:39.546Z,15
2016-12-01T14:19:40.250Z,15
2016-12-01T14:20:40.888Z,25
2016-12-01T14:21:41.556Z,30
2016-12-01T14:22:42.269Z,25
2016-12-01T14:23:42.977Z,25
2016-12-01T14:24:43.625Z,25
2016-12-01T14:25:44.264Z,25
2016-12-01T14:26:44.920Z,25
2016-12-01T14:27:45.582Z,25
2016-12-01T14:28:46.229Z,25
2016-12-01T14:29:46.863Z,20
2016-12-01T14:30:47.502Z,15
2016-12-01T14:31:48.172Z,20
2016-12-01T14:32:48.835Z,20
2016-12-01T14:33:49.527Z,15
2016-12-01T14:34:50.605Z,15
2016-12-01T14:35:51.400Z,15